createdAt,value
2019-03-09T00:03:06.010Z,71.4
2019-03-09T00:08:05.903Z,71.1
2019-03-09T00:13:06.086Z,71.9
2019-03-09T00:18:05.898Z,71.9
2019-03-09T00:23:05.910Z,72.5
2019-03-09T00:28:06.097Z,73.6
2019-03-09T00:33:06.155Z,72.7
2019-03-09T00:38:06.094Z,72.9
2019-03-09T00:43:06.100Z,72.8
2019-03-09T00:48:06.190Z,72.9
2019-03-09T00:53:06.065Z,73.2
2019-03-09T00:58:06.079Z,74.5
2019-03-09T01:03:06.036Z,74.1
2019-03-09T01:08:05.919Z,73.4
2019-03-09T01:13:06.038Z,73.2
2019-03-09T01:18:05.911Z,74.8
2019-03-09T01:23:06.047Z,74.2
2019-03-09T01:28:06.074Z,75.3
2019-03-09T01:33:05.917Z,74.2
2019-03-09T01:38:05.942Z,75.3
2019-03-09T01:43:06.084Z,74.5
2019-03-09T01:48:06.123Z,74.2
2019-03-09T01:53:06.103Z,75.2
2019-03-09T01:58:06.086Z,75.5
2019-03-09T02:03:06.148Z,75.1
2019-03-09T02:08:06.164Z,76.3
2019-03-09T02:13:05.962Z,76
2019-03-09T02:18:06.125Z,77.1
2019-03-09T02:23:06.163Z,77
2019-03-09T02:28:05.951Z,76.5
2019-03-09T02:33:06.163Z,76.6
2019-03-09T02:38:06.174Z,77.3
2019-03-09T02:43:06.055Z,77
2019-03-09T02:48:05.979Z,77.4
2019-03-09T02:53:06.169Z,77.9
2019-03-09T02:58:05.972Z,77.8
2019-03-09T03:03:06.002Z,77.3
2019-03-09T03:08:06.160Z,77.1
2019-03-09T03:13:06.090Z,77.3
2019-03-09T03:18:06.026Z,77.1
2019-03-09T03:23:06.142Z,77
2019-03-09T03:33:06.139Z,78.1
2019-03-09T03:38:06.332Z,78.1
2019-03-09T03:43:05.958Z,77.9
2019-03-09T03:48:06.116Z,78.4
2019-03-09T03:53:06.076Z,78.4
2019-03-09T03:58:06.075Z,78.3
2019-03-09T04:03:06.120Z,77.4
2019-03-09T04:08:06.088Z,78
2019-03-09T04:13:05.972Z,78.2
2019-03-09T04:18:06.125Z,78.7
2019-03-09T04:23:06.162Z,78.1
2019-03-09T04:28:06.210Z,79.7
2019-03-09T04:33:06.232Z,79.3
2019-03-09T04:38:06.149Z,79
2019-03-09T04:43:06.196Z,78.7
2019-03-09T04:48:06.219Z,78.7
2019-03-09T04:53:06.252Z,79.1
2019-03-09T04:58:06.191Z,80
2019-03-09T05:03:06.233Z,79.2
2019-03-09T05:08:05.982Z,80.5
2019-03-09T05:13:06.197Z,80.6
2019-03-09T05:18:06.242Z,81.1
2019-03-09T05:23:06.006Z,79.5
2019-03-09T05:28:06.206Z,80.3
2019-03-09T05:33:06.223Z,79.3
2019-03-09T05:38:06.036Z,80.7
2019-03-09T05:43:06.012Z,79.3
2019-03-09T05:48:06.240Z,78.7
2019-03-09T05:53:06.020Z,79.1
2019-03-09T05:58:06.037Z,80.3
2019-03-09T06:03:06.233Z,79.1
2019-03-09T06:08:06.266Z,79
2019-03-09T06:13:06.023Z,78.9
2019-03-09T06:18:06.810Z,78.2
2019-03-09T06:23:06.289Z,79.1
2019-03-09T06:28:06.057Z,78.1
2019-03-09T06:33:08.814Z,77.9
2019-03-09T06:38:06.043Z,78.3
2019-03-09T06:43:06.046Z,79.2
2019-03-09T06:48:06.084Z,78.9
2019-03-09T06:53:06.072Z,80.2
2019-03-09T06:58:06.075Z,78.5
2019-03-09T07:03:06.061Z,78.3
2019-03-09T07:08:06.034Z,77.4
2019-03-09T07:13:06.034Z,78
2019-03-09T07:18:06.064Z,77.9
2019-03-09T07:23:06.061Z,77.9
2019-03-09T07:28:06.044Z,77.1
2019-03-09T07:33:06.100Z,78.2
2019-03-09T07:38:06.078Z,76.3
2019-03-09T07:43:06.123Z,75.9
2019-03-09T07:48:06.073Z,74.9
2019-03-09T07:53:06.060Z,75.2
2019-03-09T07:58:06.072Z,73.4
2019-03-09T08:03:06.079Z,73.8
2019-03-09T08:08:06.069Z,73.4
2019-03-09T08:13:06.084Z,71.9
2019-03-09T08:18:06.109Z,71.5
2019-03-09T08:23:06.090Z,72.7
2019-03-09T08:28:06.100Z,71.5
2019-03-09T08:33:06.113Z,71.6
2019-03-09T08:38:06.074Z,72.2
2019-03-09T08:43:06.365Z,73.5
2019-03-09T08:48:06.120Z,73.6
2019-03-09T08:53:09.636Z,72.2
2019-03-09T08:58:06.120Z,72.8
2019-03-09T09:03:06.109Z,72.5
2019-03-09T09:08:06.142Z,68.5
2019-03-09T09:13:08.365Z,67
2019-03-09T09:18:06.530Z,66.2
2019-03-09T09:23:06.273Z,66.5
2019-03-09T09:28:06.129Z,64.6
2019-03-09T09:33:06.134Z,63.9
2019-03-09T09:38:06.123Z,64.5
2019-03-09T09:43:06.212Z,62
2019-03-09T09:48:06.145Z,60.8
2019-03-09T09:53:06.136Z,60.9
2019-03-09T09:58:06.133Z,63.4
2019-03-09T10:03:06.139Z,66.5
2019-03-09T10:08:06.369Z,66
2019-03-09T10:13:07.455Z,68.7
2019-03-09T10:18:06.154Z,68.8
2019-03-09T10:23:06.184Z,68
2019-03-09T10:28:06.299Z,68.7
2019-03-09T10:33:06.392Z,66.7
2019-03-09T10:38:06.170Z,67.2
2019-03-09T10:43:06.205Z,67.3
2019-03-09T10:48:06.184Z,66
2019-03-09T10:53:06.174Z,65.1
2019-03-09T10:58:06.181Z,64.2
2019-03-09T11:03:06.159Z,63.6
2019-03-09T11:08:06.213Z,62.4
2019-03-09T11:13:06.173Z,61.7
2019-03-09T11:18:06.167Z,59.3
2019-03-09T11:23:08.944Z,60
2019-03-09T11:28:06.390Z,60.2
2019-03-09T11:33:06.188Z,59.6
2019-03-09T11:38:06.203Z,57.4
2019-03-09T11:43:06.499Z,58
2019-03-09T11:48:06.230Z,57.9
2019-03-09T11:53:06.178Z,56.9
2019-03-09T11:58:06.198Z,56.6
2019-03-09T12:03:06.219Z,55.7
2019-03-09T12:08:07.053Z,55
2019-03-09T12:13:06.221Z,53.6
2019-03-09T12:18:06.179Z,54.2
2019-03-09T12:23:06.219Z,52.9
2019-03-09T12:28:06.221Z,53.6
2019-03-09T12:33:06.238Z,51.6
2019-03-09T12:38:06.311Z,53.2
2019-03-09T12:43:06.411Z,52.8
2019-03-09T12:48:06.291Z,53.5
2019-03-09T12:53:06.273Z,54
2019-03-09T12:58:06.326Z,54.3
2019-03-09T13:03:06.448Z,52.5
2019-03-09T13:08:06.305Z,52.7
2019-03-09T13:13:06.565Z,52.3
2019-03-09T13:18:06.511Z,53.2
2019-03-09T13:23:06.365Z,53.1
2019-03-09T13:28:06.394Z,53.1
2019-03-09T13:33:06.595Z,52.8
2019-03-09T13:38:06.269Z,54.3
2019-03-09T13:43:06.379Z,54.5
2019-03-09T13:48:06.505Z,54.8
2019-03-09T13:53:06.611Z,55.4
2019-03-09T13:58:06.267Z,55.2
2019-03-09T14:03:06.350Z,55.5
2019-03-09T14:08:06.290Z,55.2
2019-03-09T14:13:06.289Z,55.7
2019-03-09T14:18:06.281Z,56.2
2019-03-09T14:23:06.267Z,57
2019-03-09T14:28:06.267Z,57.1
2019-03-09T14:33:06.350Z,58
2019-03-09T14:38:07.333Z,58.6
2019-03-09T14:43:06.319Z,59.7
2019-03-09T14:48:06.338Z,59.3
2019-03-09T14:53:06.369Z,59.5
2019-03-09T14:58:06.364Z,59.9
2019-03-09T15:03:06.364Z,59.7
2019-03-09T15:08:06.385Z,60.1
2019-03-09T15:13:06.425Z,60.7
2019-03-09T15:18:06.434Z,60.5
2019-03-09T15:23:09.353Z,59.7
2019-03-09T15:28:07.419Z,59.9
2019-03-09T15:33:06.391Z,61
2019-03-09T15:38:07.422Z,61.4
2019-03-09T15:43:06.430Z,61.5
2019-03-09T15:48:06.484Z,61.1
2019-03-09T15:53:06.533Z,62.1
2019-03-09T15:58:06.438Z,60.9
2019-03-09T16:03:09.324Z,61.7
2019-03-09T16:08:06.384Z,62.2
2019-03-09T16:13:06.411Z,62.7
2019-03-09T16:18:09.208Z,63.2
2019-03-09T16:23:12.169Z,63.2
2019-03-09T16:28:06.395Z,66.2
2019-03-09T16:33:06.550Z,68.6
2019-03-09T16:38:06.444Z,70.3
2019-03-09T16:43:06.437Z,71.9
2019-03-09T16:48:07.874Z,73.7
2019-03-09T16:53:09.090Z,74.3
2019-03-09T16:58:09.034Z,76
2019-03-09T17:03:06.441Z,75.5
2019-03-09T17:08:09.010Z,76.1
2019-03-09T17:13:06.460Z,76.8
2019-03-09T17:18:06.504Z,80.3
2019-03-09T17:23:06.544Z,79.1
2019-03-09T17:28:07.473Z,79.7
2019-03-09T17:33:06.478Z,81.5
2019-03-09T17:38:06.800Z,81.2
2019-03-09T17:43:06.481Z,81.2
2019-03-09T17:48:06.455Z,82.7
2019-03-09T17:53:06.613Z,81.9
2019-03-09T17:58:07.181Z,81.7
2019-03-09T18:03:06.586Z,81.6
2019-03-09T18:08:06.649Z,81.3
2019-03-09T18:13:06.652Z,81.3
2019-03-09T18:18:06.636Z,81.8
2019-03-09T18:23:06.595Z,80.5
2019-03-09T18:28:06.441Z,80.4
2019-03-09T18:33:06.582Z,79.6
2019-03-09T18:38:16.570Z,78.8
2019-03-09T18:43:06.667Z,80
2019-03-09T18:48:06.498Z,79.8
2019-03-09T18:53:08.516Z,78.4
2019-03-09T18:58:06.743Z,78.4
2019-03-09T19:03:06.907Z,77.9
2019-03-09T19:08:06.703Z,78.4
2019-03-09T19:13:06.695Z,77.9
2019-03-09T19:18:06.627Z,76.7
2019-03-09T19:23:07.052Z,76.5
2019-03-09T19:28:07.191Z,76.5
2019-03-09T19:33:06.681Z,75.8
2019-03-09T19:38:07.562Z,75
2019-03-09T19:43:07.786Z,75.3
2019-03-09T19:48:08.024Z,74.4
2019-03-09T19:53:07.561Z,74.1
2019-03-09T19:58:06.787Z,73.7
2019-03-09T20:03:06.649Z,72.9
2019-03-09T20:08:06.657Z,73.2
2019-03-09T20:13:07.277Z,72.4
2019-03-09T20:18:06.817Z,71.7
2019-03-09T20:23:06.674Z,71.7
2019-03-09T20:28:07.777Z,71.1
2019-03-09T20:33:06.666Z,69.4
2019-03-09T20:38:06.654Z,67.7
2019-03-09T20:43:06.656Z,68.1
2019-03-09T20:48:06.660Z,67.1
2019-03-09T20:53:06.547Z,67.1
2019-03-09T20:58:06.685Z,66.1
2019-03-09T21:03:06.709Z,65.6
2019-03-09T21:08:07.223Z,65.4
2019-03-09T21:13:06.693Z,65.7
2019-03-09T21:18:06.696Z,64.5
2019-03-09T21:23:06.544Z,64.5
2019-03-09T21:28:06.694Z,63.5
2019-03-09T21:33:06.695Z,62.9
2019-03-09T21:38:06.543Z,63
2019-03-09T21:43:06.702Z,63.1
2019-03-09T21:48:07.795Z,62.7
2019-03-09T21:53:06.570Z,62.4
2019-03-09T21:58:06.655Z,61.9
2019-03-09T22:03:06.562Z,62.1
2019-03-09T22:08:06.539Z,61.4
2019-03-09T22:13:09.431Z,61.5
2019-03-09T22:18:06.632Z,61.2
2019-03-09T22:23:06.562Z,62.2
2019-03-09T22:28:06.582Z,61.1
2019-03-09T22:33:06.566Z,61.6
2019-03-09T22:38:07.608Z,61.4
2019-03-09T22:43:06.569Z,60.4
2019-03-09T22:48:06.566Z,59.6
2019-03-09T22:53:06.578Z,58.8
2019-03-09T22:58:06.637Z,58.8
2019-03-09T23:03:06.588Z,57.9
2019-03-09T23:08:06.593Z,57.7
2019-03-09T23:13:06.592Z,56.9
2019-03-09T23:18:06.600Z,56.4
2019-03-09T23:23:06.842Z,55.4
2019-03-09T23:28:06.728Z,55.7
2019-03-09T23:33:06.699Z,56.8
2019-03-09T23:38:06.608Z,56.3
2019-03-09T23:43:07.644Z,57
2019-03-09T23:48:06.609Z,57.2
2019-03-09T23:53:06.611Z,58.1
2019-03-09T23:58:06.717Z,57.6
